Time;durP1;ratioP1;P1;durP2;ratioP2;P2;SDS_P1;SDS_P2;PMS_P1;PMS_P2;Temp;Humidity;BMP_temperature;BMP_pressure;BME280_temperature;BME280_humidity;BME280_pressure;Samples;Min_cycle;Max_cycle;Signal;HPM_P1;HPM_P2
2023/07/21 00:01:52;;;;;;;;;;;;;;;22.56;41.45;100986.50;4133084;28;19928;-54
2023/07/21 00:03:54;;;;;;;;;;;;;;;22.53;41.89;100985.91;4145981;28;19929;-53
2023/07/21 00:05:55;;;;;;;;;;;;;;;22.52;42.01;100992.22;4147152;28;20273;-51
2023/07/21 00:08:03;;;;;;;;;;;;;;;22.50;41.83;100989.69;4149835;28;19975;-49
2023/07/21 00:10:09;;;;;;;;;;;;;;;22.51;41.79;100982.50;4149841;28;19968;-54
2023/07/21 00:12:11;;;;;;;;;;;;;;;22.52;41.85;100981.50;4132255;28;19940;-53
2023/07/21 00:14:13;;;;;;;;;;;;;;;22.49;42.01;100977.25;4149223;28;19984;-49
2023/07/21 00:16:15;;;;;;;;;;;;;;;22.49;41.82;100979.94;4149827;28;20363;-50
2023/07/21 00:18:16;;;;;;;;;;;;;;;22.46;42.07;100975.69;4149892;28;20269;-53
2023/07/21 00:20:25;;;;;;;;;;;;;;;22.48;41.56;100975.59;4149791;28;19957;-49
2023/07/21 00:22:28;;;;;;;;;;;;;;;22.49;42.05;100975.44;4148906;28;20351;-47
2023/07/21 00:24:30;;;;;;;;;;;;;;;22.47;41.79;100977.41;4149524;28;19922;-49
2023/07/21 00:26:31;;;;;;;;;;;;;;;22.46;41.61;100978.38;4149159;28;19922;-53
2023/07/21 00:28:33;;;;;;;;;;;;;;;22.44;41.87;100977.66;4149628;28;20323;-49
2023/07/21 00:30:37;;;;;;;;;;;;;;;22.46;41.94;100975.69;4149465;28;19921;-54
2023/07/21 00:32:39;;;;;;;;;;;;;;;22.46;41.99;100966.81;4148741;28;19925;-52
2023/07/21 00:34:41;;;;;;;;;;;;;;;22.45;41.37;100963.25;4149396;28;19963;-52
2023/07/21 00:36:45;;;;;;;;;;;;;;;22.42;41.88;100963.53;4149548;28;19925;-50
2023/07/21 00:38:47;;;;;;;;;;;;;;;22.42;41.67;100968.00;4149218;28;19929;-53
2023/07/21 00:40:49;;;;;;;;;;;;;;;22.43;41.88;100969.72;4149113;28;20341;-53
2023/07/21 00:42:50;;;;;;;;;;;;;;;22.41;41.77;100975.22;4132731;28;19921;-52
2023/07/21 00:44:52;;;;;;;;;;;;;;;22.44;41.89;100976.78;4132975;28;19932;-49
2023/07/21 00:46:53;;;;;;;;;;;;;;;22.41;41.95;100971.69;4133093;28;19932;-48
2023/07/21 00:48:55;;;;;;;;;;;;;;;22.40;41.81;100970.81;4133119;28;19944;-51
2023/07/21 00:50:57;;;;;;;;;;;;;;;22.42;41.86;100978.72;4133211;28;19922;-52
2023/07/21 00:52:58;;;;;;;;;;;;;;;22.41;41.70;100983.25;4132024;28;20373;-52
2023/07/21 00:55:00;;;;;;;;;;;;;;;22.39;41.43;100985.19;4132793;28;19922;-50
2023/07/21 00:57:02;;;;;;;;;;;;;;;22.36;41.95;100972.03;4132948;28;20424;-53
2023/07/21 00:59:04;;;;;;;;;;;;;;;22.39;41.81;100979.84;4132859;28;19926;-48
2023/07/21 01:01:06;;;;;;;;;;;;;;;22.36;41.95;100974.72;4133034;28;19945;-52
2023/07/21 01:03:09;;;;;;;;;;;;;;;22.39;41.65;100968.28;4144445;28;19922;-53
2023/07/21 01:05:12;;;;;;;;;;;;;;;22.37;41.61;100965.72;4148761;28;19929;-51
2023/07/21 01:07:18;;;;;;;;;;;;;;;22.35;41.84;100970.34;4148761;28;19925;-49
2023/07/21 01:09:22;;;;;;;;;;;;;;;22.35;41.71;100967.66;4131799;28;20451;-53
2023/07/21 01:11:24;;;;;;;;;;;;;;;22.34;41.79;100972.13;4148700;28;20380;-50
2023/07/21 01:13:26;;;;;;;;;;;;;;;22.33;41.48;100967.78;4147723;28;20028;-51
2023/07/21 01:15:28;;;;;;;;;;;;;;;22.34;41.71;100971.31;4148985;28;20404;-52
2023/07/21 01:17:35;;;;;;;;;;;;;;;22.33;41.60;100974.94;4147900;28;19922;-50
2023/07/21 01:19:37;;;;;;;;;;;;;;;22.31;41.73;100982.28;4148561;28;20377;-50
2023/07/21 01:21:51;;;;;;;;;;;;;;;22.30;41.67;100983.25;4148851;28;20355;-52
2023/07/21 01:24:00;;;;;;;;;;;;;;;22.28;41.82;100966.44;4147872;28;19925;-49
2023/07/21 01:26:02;;;;;;;;;;;;;;;22.28;41.38;100977.16;4148434;28;19921;-47
2023/07/21 01:28:12;;;;;;;;;;;;;;;22.27;41.38;100978.13;4147638;28;19928;-51
2023/07/21 01:30:14;;;;;;;;;;;;;;;22.26;41.84;100974.63;4148791;28;19929;-52
2023/07/21 01:32:22;;;;;;;;;;;;;;;22.26;41.89;100979.09;4148418;28;19928;-49
2023/07/21 01:34:23;;;;;;;;;;;;;;;22.25;41.73;100980.94;4147824;28;19925;-51
2023/07/21 01:36:26;;;;;;;;;;;;;;;22.23;41.79;100972.16;4130964;28;19921;-52
2023/07/21 01:38:29;;;;;;;;;;;;;;;22.24;41.51;100979.25;4148560;28;19972;-48
2023/07/21 01:40:36;;;;;;;;;;;;;;;22.22;41.84;100983.03;4148257;28;19928;-51
2023/07/21 01:42:39;;;;;;;;;;;;;;;22.20;41.92;100982.28;4133486;28;20023;-46
2023/07/21 01:44:41;;;;;;;;;;;;;;;22.19;42.35;100978.78;4132202;28;20411;-51
2023/07/21 01:46:42;;;;;;;;;;;;;;;22.18;42.31;100969.03;4131958;28;19921;-49
2023/07/21 01:48:47;;;;;;;;;;;;;;;22.18;42.58;100967.19;4131995;28;19926;-48
2023/07/21 01:50:49;;;;;;;;;;;;;;;22.16;42.39;100966.47;4132281;28;20389;-52
2023/07/21 01:52:51;;;;;;;;;;;;;;;22.16;42.66;100957.56;4131366;28;19928;-50
2023/07/21 01:55:17;;;;;;;;;;;;;;;22.15;42.68;100951.38;4131801;28;19928;-49
2023/07/21 01:57:31;;;;;;;;;;;;;;;22.14;43.24;100954.16;4131959;28;20336;-53
2023/07/21 01:59:33;;;;;;;;;;;;;;;22.14;43.24;100948.78;4131908;28;19921;-53
2023/07/21 02:01:36;;;;;;;;;;;;;;;22.12;43.05;100940.91;4131838;28;20024;-52
2023/07/21 02:03:38;;;;;;;;;;;;;;;22.13;43.48;100947.13;4146998;28;19921;-52
2023/07/21 02:05:40;;;;;;;;;;;;;;;22.12;43.65;100953.44;4148295;28;20460;-51
2023/07/21 02:07:44;;;;;;;;;;;;;;;22.12;43.79;100951.59;4147999;28;20298;-50
2023/07/21 02:09:50;;;;;;;;;;;;;;;22.13;43.86;100944.44;4147981;28;19944;-49
2023/07/21 02:11:51;;;;;;;;;;;;;;;22.11;43.87;100949.91;4147304;28;20005;-52
2023/07/21 02:13:53;;;;;;;;;;;;;;;22.08;44.02;100947.50;4146774;28;19955;-50
2023/07/21 02:15:54;;;;;;;;;;;;;;;22.08;43.66;100952.84;4147890;28;20401;-53
2023/07/21 02:17:56;;;;;;;;;;;;;;;22.09;44.10;100945.66;4148140;28;19921;-47
2023/07/21 02:19:58;;;;;;;;;;;;;;;22.11;43.86;100946.38;4147957;28;19968;-52
2023/07/21 02:21:59;;;;;;;;;;;;;;;22.09;44.07;100935.81;4148261;28;20008;-52
2023/07/21 02:24:01;;;;;;;;;;;;;;;22.11;44.05;100943.72;4146770;28;20050;-50
2023/07/21 02:26:03;;;;;;;;;;;;;;;22.11;44.31;100947.22;4147827;28;20006;-49
2023/07/21 02:28:04;;;;;;;;;;;;;;;22.09;44.25;100943.84;4147560;28;19921;-52
2023/07/21 02:30:06;;;;;;;;;;;;;;;22.09;44.32;100945.66;4147532;28;19921;-51
2023/07/21 02:32:10;;;;;;;;;;;;;;;22.04;44.16;100948.69;4147658;28;19964;-47
2023/07/21 02:34:12;;;;;;;;;;;;;;;22.06;44.50;100953.94;4146636;28;19969;-49
2023/07/21 02:36:13;;;;;;;;;;;;;;;22.05;44.42;100947.72;4130468;28;19922;-52
2023/07/21 02:38:15;;;;;;;;;;;;;;;22.04;44.55;100943.34;4147375;28;20028;-50
2023/07/21 02:40:19;;;;;;;;;;;;;;;22.04;44.30;100943.34;4147484;28;19967;-49
2023/07/21 02:42:21;;;;;;;;;;;;;;;22.01;44.65;100948.97;4135698;28;19960;-50
2023/07/21 02:44:23;;;;;;;;;;;;;;;21.99;44.50;100949.09;4130458;28;19976;-51
2023/07/21 02:46:24;;;;;;;;;;;;;;;21.99;44.42;100953.56;4131213;28;20024;-53
2023/07/21 02:48:26;;;;;;;;;;;;;;;21.99;44.45;100950.91;4131185;28;19926;-52
2023/07/21 02:50:29;;;;;;;;;;;;;;;21.99;44.18;100951.78;4131490;28;19945;-51
2023/07/21 02:52:30;;;;;;;;;;;;;;;21.99;44.49;100954.44;4130843;28;19961;-53
2023/07/21 02:54:32;;;;;;;;;;;;;;;21.99;44.24;100953.56;4130239;28;20035;-50
2023/07/21 02:56:34;;;;;;;;;;;;;;;21.97;44.56;100950.16;4131617;28;20301;-47
2023/07/21 02:58:36;;;;;;;;;;;;;;;21.98;44.42;100952.75;4131100;28;19932;-51
2023/07/21 03:00:38;;;;;;;;;;;;;;;21.96;44.18;100949.31;4131331;28;19928;-53
2023/07/21 03:02:41;;;;;;;;;;;;;;;21.96;44.39;100949.31;4122567;28;19921;-52
2023/07/21 03:04:43;;;;;;;;;;;;;;;21.94;44.39;100953.09;4146756;28;20242;-53
2023/07/21 03:06:46;;;;;;;;;;;;;;;21.95;44.29;100949.44;4147254;28;20350;-51
2023/07/21 03:08:48;;;;;;;;;;;;;;;21.86;44.56;100941.19;4147552;28;20269;-50
2023/07/21 03:10:49;;;;;;;;;;;;;;;21.93;44.46;100944.19;4147511;28;20372;-48
2023/07/21 03:12:51;;;;;;;;;;;;;;;21.90;44.41;100940.94;4146762;28;19921;-53
2023/07/21 03:14:52;;;;;;;;;;;;;;;21.90;44.47;100948.97;4147307;28;20308;-49
2023/07/21 03:16:54;;;;;;;;;;;;;;;21.90;44.59;100948.97;4147615;28;19922;-48
2023/07/21 03:18:55;;;;;;;;;;;;;;;21.89;44.61;100949.94;4147444;28;20008;-49
2023/07/21 03:20:58;;;;;;;;;;;;;;;21.88;44.18;100949.06;4146903;28;19929;-49
2023/07/21 03:22:59;;;;;;;;;;;;;;;21.88;44.73;100943.72;4146575;28;19925;-53
2023/07/21 03:25:01;;;;;;;;;;;;;;;21.88;44.71;100948.25;4147055;28;19929;-52
2023/07/21 03:27:03;;;;;;;;;;;;;;;21.88;44.43;100954.44;4147066;28;20004;-52
2023/07/21 03:29:04;;;;;;;;;;;;;;;21.86;44.69;100951.88;4147023;28;19921;-52
2023/07/21 03:31:09;;;;;;;;;;;;;;;21.88;44.85;100956.28;4147274;28;19933;-52
2023/07/21 03:33:10;;;;;;;;;;;;;;;21.88;44.51;100950.91;4146168;28;19925;-51
2023/07/21 03:35:12;;;;;;;;;;;;;;;21.86;44.93;100956.41;4146890;28;19921;-52
2023/07/21 03:37:13;;;;;;;;;;;;;;;21.85;44.83;100954.69;4147096;28;19925;-52
2023/07/21 03:39:15;;;;;;;;;;;;;;;21.83;44.58;100954.78;4147193;28;19922;-49
2023/07/21 03:41:16;;;;;;;;;;;;;;;21.82;44.92;100947.75;4144390;28;20385;-52
2023/07/21 03:43:18;;;;;;;;;;;;;;;21.82;44.86;100942.41;4133113;28;20397;-51
2023/07/21 03:45:20;;;;;;;;;;;;;;;21.85;44.96;100936.78;4134105;28;20000;-52
2023/07/21 03:47:22;;;;;;;;;;;;;;;21.82;45.15;100945.09;4134136;28;19961;-50
2023/07/21 03:49:24;;;;;;;;;;;;;;;21.79;45.05;100939.97;4133848;28;19949;-51
2023/07/21 03:51:26;;;;;;;;;;;;;;;21.80;45.27;100952.38;4133861;28;19932;-50
2023/07/21 03:53:28;;;;;;;;;;;;;;;21.81;44.84;100963.94;4133019;28;19921;-50
2023/07/21 03:55:39;;;;;;;;;;;;;;;21.79;44.91;100961.38;4133753;28;19932;-50
2023/07/21 03:57:41;;;;;;;;;;;;;;;21.78;45.07;100959.66;4133797;28;19932;-52
2023/07/21 03:59:42;;;;;;;;;;;;;;;21.79;45.06;100960.53;4133657;28;20000;-51
2023/07/21 04:01:44;;;;;;;;;;;;;;;21.78;45.20;100966.88;4117735;28;19948;-46
2023/07/21 04:03:47;;;;;;;;;;;;;;;21.75;45.28;100962.59;4149007;28;19921;-51
2023/07/21 04:05:51;;;;;;;;;;;;;;;21.73;44.95;100961.03;4132648;28;20423;-52
2023/07/21 04:07:53;;;;;;;;;;;;;;;21.73;45.06;100961.03;4149899;28;20396;-48
2023/07/21 04:09:55;;;;;;;;;;;;;;;21.73;45.10;100956.50;4149805;28;19968;-48
2023/07/21 04:11:57;;;;;;;;;;;;;;;21.73;45.40;100953.84;4149776;28;20007;-51
2023/07/21 04:13:59;;;;;;;;;;;;;;;21.71;45.26;100963.81;4149017;28;20001;-51
2023/07/21 04:16:01;;;;;;;;;;;;;;;21.72;45.06;100968.19;4149844;28;19927;-48
2023/07/21 04:18:04;;;;;;;;;;;;;;;21.71;45.20;100966.47;4149757;28;20434;-50
2023/07/21 04:20:09;;;;;;;;;;;;;;;21.73;45.32;100967.22;4149528;28;20392;-51
2023/07/21 04:22:11;;;;;;;;;;;;;;;21.72;45.16;100967.34;4149745;28;19921;-53
2023/07/21 04:24:12;;;;;;;;;;;;;;;21.72;45.15;100962.00;4148472;28;20027;-45
2023/07/21 04:26:14;;;;;;;;;;;;;;;21.73;44.97;100964.53;4149440;28;19928;-51
2023/07/21 04:28:16;;;;;;;;;;;;;;;21.69;44.95;100965.78;4149630;28;20419;-50
2023/07/21 04:30:17;;;;;;;;;;;;;;;21.68;45.11;100966.75;4149589;28;20008;-53
2023/07/21 04:32:19;;;;;;;;;;;;;;;21.66;45.29;100964.16;4149733;28;19951;-50
2023/07/21 04:34:21;;;;;;;;;;;;;;;21.68;45.16;100962.22;4148343;28;20345;-48
2023/07/21 04:36:23;;;;;;;;;;;;;;;21.67;45.15;100954.31;4149413;28;19922;-51
2023/07/21 04:38:25;;;;;;;;;;;;;;;21.66;45.17;100963.31;4149587;28;20408;-51
2023/07/21 04:40:26;;;;;;;;;;;;;;;21.65;45.32;100967.84;4149396;28;19927;-48
2023/07/21 04:42:28;;;;;;;;;;;;;;;21.65;45.08;100964.28;4136611;28;19922;-51
2023/07/21 04:44:29;;;;;;;;;;;;;;;21.65;45.14;100965.16;4132197;28;19922;-50
2023/07/21 04:46:31;;;;;;;;;;;;;;;21.65;45.35;100964.28;4133084;28;19928;-48
2023/07/21 04:48:33;;;;;;;;;;;;;;;21.66;45.14;100960.66;4132749;28;19957;-49
2023/07/21 04:50:34;;;;;;;;;;;;;;;21.64;45.30;100958.09;4133035;28;19965;-49
2023/07/21 04:52:37;;;;;;;;;;;;;;;21.64;45.32;100950.06;4132859;28;19926;-52
2023/07/21 04:54:39;;;;;;;;;;;;;;;21.64;45.36;100952.75;4132058;28;19922;-53
2023/07/21 04:56:42;;;;;;;;;;;;;;;21.65;45.29;100953.59;4133078;28;20309;-50
2023/07/21 04:58:44;;;;;;;;;;;;;;;21.63;45.53;100948.38;4132835;28;19925;-51
2023/07/21 05:00:45;;;;;;;;;;;;;;;21.63;45.43;100948.38;4132678;28;19922;-50
2023/07/21 05:02:47;;;;;;;;;;;;;;;21.64;45.77;100951.88;4142290;28;19925;-52
2023/07/21 05:04:49;;;;;;;;;;;;;;;21.63;45.54;100951.03;4148009;28;19983;-52
2023/07/21 05:06:50;;;;;;;;;;;;;;;21.64;45.38;100938.50;4148925;28;19968;-47
2023/07/21 05:08:52;;;;;;;;;;;;;;;21.64;45.58;100935.81;4149063;28;19927;-51
2023/07/21 05:10:54;;;;;;;;;;;;;;;21.63;45.66;100928.75;4148776;28;20297;-51
2023/07/21 05:12:56;;;;;;;;;;;;;;;21.63;45.54;100932.31;4148915;28;19979;-51
2023/07/21 05:14:58;;;;;;;;;;;;;;;21.63;45.50;100934.09;4147964;28;20012;-52
2023/07/21 05:16:59;;;;;;;;;;;;;;;21.62;45.64;100946.66;4148573;28;19925;-48
2023/07/21 05:19:01;;;;;;;;;;;;;;;21.63;45.65;100951.03;4148694;28;19925;-49
2023/07/21 05:21:02;;;;;;;;;;;;;;;21.63;45.66;100952.84;4148702;28;19927;-52
2023/07/21 05:23:04;;;;;;;;;;;;;;;21.62;45.83;100957.34;4148768;28;19979;-50
2023/07/21 05:25:06;;;;;;;;;;;;;;;21.63;45.62;100958.19;4147560;28;20308;-51
2023/07/21 05:27:07;;;;;;;;;;;;;;;21.64;45.55;100976.84;4148580;28;19921;-49
2023/07/21 05:29:09;;;;;;;;;;;;;;;21.62;45.42;100961.88;4148720;28;19921;-50
2023/07/21 05:31:13;;;;;;;;;;;;;;;21.60;45.91;100945.06;4148319;28;19929;-51
2023/07/21 05:33:15;;;;;;;;;;;;;;;21.60;45.92;100953.94;4148129;28;19967;-51
2023/07/21 05:35:17;;;;;;;;;;;;;;;21.59;45.64;100957.59;4148337;28;19925;-53
2023/07/21 05:37:19;;;;;;;;;;;;;;;21.59;45.46;100952.22;4148649;28;20311;-53
2023/07/21 05:39:21;;;;;;;;;;;;;;;21.60;45.68;100948.59;4148654;28;19953;-52
2023/07/21 05:41:23;;;;;;;;;;;;;;;21.59;45.49;100949.56;4144543;28;20262;-51
2023/07/21 05:43:24;;;;;;;;;;;;;;;21.59;45.37;100946.03;4131571;28;19921;-50
2023/07/21 05:45:26;;;;;;;;;;;;;;;21.57;45.59;100943.50;4131770;28;20312;-53
2023/07/21 05:47:27;;;;;;;;;;;;;;;21.58;45.25;100953.22;4132303;28;19922;-50
2023/07/21 05:49:30;;;;;;;;;;;;;;;21.57;45.49;100956.88;4132093;28;20013;-50
2023/07/21 05:51:32;;;;;;;;;;;;;;;21.57;45.17;100948.84;4132317;28;20428;-50
2023/07/21 05:53:33;;;;;;;;;;;;;;;21.57;45.25;100961.34;4131433;28;20020;-46
2023/07/21 05:55:35;;;;;;;;;;;;;;;21.59;45.16;100956.75;4131749;28;19949;-47
2023/07/21 05:57:42;;;;;;;;;;;;;;;21.57;45.17;100958.69;4132124;28;20390;-51
2023/07/21 05:59:49;;;;;;;;;;;;;;;21.58;45.47;100957.72;4131436;28;19922;-51
2023/07/21 06:01:51;;;;;;;;;;;;;;;21.57;45.22;100956.88;4134055;28;19929;-52
2023/07/21 06:03:52;;;;;;;;;;;;;;;21.55;45.36;100966.81;4146467;28;20027;-51
2023/07/21 06:05:54;;;;;;;;;;;;;;;21.54;45.25;100957.06;4147894;28;20451;-51
2023/07/21 06:07:56;;;;;;;;;;;;;;;21.55;45.44;100964.97;4148035;28;20277;-51
2023/07/21 06:10:03;;;;;;;;;;;;;;;21.55;44.91;100967.66;4148169;28;19922;-51
2023/07/21 06:12:05;;;;;;;;;;;;;;;21.55;45.34;100967.66;4148113;28;19928;-53
2023/07/21 06:14:07;;;;;;;;;;;;;;;21.55;44.90;100966.81;4147123;28;20428;-51
2023/07/21 06:16:09;;;;;;;;;;;;;;;21.54;45.14;100965.09;4147689;28;20372;-52
2023/07/21 06:18:10;;;;;;;;;;;;;;;21.54;44.81;100959.75;4148052;28;19921;-51
2023/07/21 06:20:12;;;;;;;;;;;;;;;21.55;45.00;100959.63;4148030;28;19976;-50
2023/07/21 06:22:19;;;;;;;;;;;;;;;21.54;44.73;100941.88;4147783;28;19972;-48
2023/07/21 06:24:21;;;;;;;;;;;;;;;21.53;44.82;100953.56;4146872;28;19932;-50
2023/07/21 06:26:23;;;;;;;;;;;;;;;21.54;44.84;100967.78;4147959;28;19932;-48
2023/07/21 06:28:25;;;;;;;;;;;;;;;21.53;44.78;100969.63;4147922;28;19925;-52
2023/07/21 06:30:27;;;;;;;;;;;;;;;21.53;44.76;100956.22;4147527;28;19925;-52
2023/07/21 06:32:28;;;;;;;;;;;;;;;21.54;44.71;100967.78;4147697;28;19969;-54
2023/07/21 06:34:32;;;;;;;;;;;;;;;21.54;44.78;100963.28;4146884;28;20317;-50
2023/07/21 06:36:33;;;;;;;;;;;;;;;21.56;45.08;100971.19;4147561;28;19927;-51
2023/07/21 06:38:35;;;;;;;;;;;;;;;21.55;44.78;100964.97;4147806;28;20381;-50
2023/07/21 06:40:36;;;;;;;;;;;;;;;21.57;44.66;100961.34;4147587;28;19925;-50
2023/07/21 06:42:43;;;;;;;;;;;;;;;21.54;44.18;100965.97;4133443;28;19921;-50
2023/07/21 06:44:50;;;;;;;;;;;;;;;21.53;44.70;100971.41;4130168;28;20296;-48
2023/07/21 06:46:52;;;;;;;;;;;;;;;21.52;44.64;100978.59;4131300;28;19921;-51
2023/07/21 06:48:54;;;;;;;;;;;;;;;21.50;44.76;100977.88;4131534;28;19922;-46
2023/07/21 06:50:56;;;;;;;;;;;;;;;21.53;44.89;100971.41;4114003;28;19930;-51
2023/07/21 06:53:01;;;;;;;;;;;;;;;21.51;44.63;100966.19;4131633;28;19922;-50
2023/07/21 06:55:03;;;;;;;;;;;;;;;21.51;44.64;100976.06;4130302;28;20333;-51
2023/07/21 06:57:05;;;;;;;;;;;;;;;21.51;44.94;100971.53;4131655;28;19922;-49
2023/07/21 06:59:06;;;;;;;;;;;;;;;21.49;44.82;100965.44;4130800;28;19926;-52
2023/07/21 07:01:09;;;;;;;;;;;;;;;21.50;44.83;100969.00;4131341;28;19953;-54
2023/07/21 07:03:10;;;;;;;;;;;;;;;21.48;44.57;100960.22;4143885;28;20019;-51
2023/07/21 07:05:12;;;;;;;;;;;;;;;21.50;44.89;100960.97;4146607;28;19944;-53
2023/07/21 07:07:13;;;;;;;;;;;;;;;21.49;44.93;100962.78;4147032;28;19953;-48
2023/07/21 07:09:20;;;;;;;;;;;;;;;21.48;44.69;100962.91;4147520;28;19921;-49
2023/07/21 07:11:21;;;;;;;;;;;;;;;21.48;44.95;100953.06;4147461;28;19922;-53
2023/07/21 07:13:24;;;;;;;;;;;;;;;21.49;45.06;100965.44;4147160;28;20367;-49
2023/07/21 07:15:25;;;;;;;;;;;;;;;21.51;45.00;100962.69;4146928;28;19976;-52
2023/07/21 07:17:27;;;;;;;;;;;;;;;21.51;44.86;100970.72;4150513;28;19925;-48
2023/07/21 07:19:28;;;;;;;;;;;;;;;21.50;45.12;100960.97;4150596;28;19943;-48
2023/07/21 07:21:30;;;;;;;;;;;;;;;21.49;45.02;100968.13;4150773;28;19976;-49
2023/07/21 07:23:31;;;;;;;;;;;;;;;21.49;44.84;100969.97;4150634;28;20433;-49
2023/07/21 07:25:34;;;;;;;;;;;;;;;21.49;45.00;100975.31;4149701;28;20012;-51
2023/07/21 07:27:35;;;;;;;;;;;;;;;21.49;45.00;100969.97;4149940;28;19921;-50
2023/07/21 07:29:37;;;;;;;;;;;;;;;21.48;45.09;100976.28;4150268;28;20016;-51
2023/07/21 07:31:39;;;;;;;;;;;;;;;21.50;45.08;100972.50;4150770;28;19921;-50
2023/07/21 07:33:40;;;;;;;;;;;;;;;21.50;45.22;100979.69;4150221;28;20017;-52
2023/07/21 07:35:49;;;;;;;;;;;;;;;21.57;45.19;100974.75;4150312;28;19933;-50
2023/07/21 07:37:54;;;;;;;;;;;;;;;21.55;45.05;100975.69;4150316;28;19964;-51
2023/07/21 07:39:55;;;;;;;;;;;;;;;21.58;45.30;100974.66;4150515;28;19944;-55
2023/07/21 07:41:57;;;;;;;;;;;;;;;21.57;45.31;100980.97;4141251;28;20012;-51
2023/07/21 07:43:58;;;;;;;;;;;;;;;21.59;45.13;100981.69;4133688;28;19928;-51
2023/07/21 07:46:01;;;;;;;;;;;;;;;21.60;45.34;100986.06;4133983;28;19944;-48
2023/07/21 07:48:02;;;;;;;;;;;;;;;21.60;45.07;100982.53;4134097;28;20016;-52
2023/07/21 07:50:04;;;;;;;;;;;;;;;21.59;45.16;100983.50;4133984;28;19921;-53
2023/07/21 07:52:07;;;;;;;;;;;;;;;21.61;45.34;100984.25;4133973;28;19921;-52
2023/07/21 07:54:08;;;;;;;;;;;;;;;21.59;45.54;100991.53;4133034;28;19969;-52
2023/07/21 07:56:16;;;;;;;;;;;;;;;21.60;45.48;100986.06;4133461;28;20223;-50
2023/07/21 07:58:18;;;;;;;;;;;;;;;21.61;45.34;100989.59;4133856;28;19929;-51
2023/07/21 08:00:19;;;;;;;;;;;;;;;21.60;45.58;100988.75;4133543;28;19996;-51
2023/07/21 08:02:21;;;;;;;;;;;;;;;21.59;45.86;100986.19;4139808;28;19931;-53
2023/07/21 08:04:22;;;;;;;;;;;;;;;21.59;45.85;100986.19;4149041;28;19995;-51
2023/07/21 08:06:24;;;;;;;;;;;;;;;21.59;46.06;101000.41;4150012;28;20012;-49
2023/07/21 08:08:27;;;;;;;;;;;;;;;21.59;45.84;100992.38;4150066;28;19937;-53
2023/07/21 08:10:29;;;;;;;;;;;;;;;21.59;46.09;100988.88;4149600;28;19929;-53
2023/07/21 08:12:31;;;;;;;;;;;;;;;21.61;46.03;100998.47;4150104;28;19921;-52
2023/07/21 08:14:32;;;;;;;;;;;;;;;21.65;46.07;100999.09;4148729;28;20415;-52
2023/07/21 08:16:36;;;;;;;;;;;;;;;21.66;45.75;101000.78;4149864;28;20024;-50
2023/07/21 08:18:38;;;;;;;;;;;;;;;21.66;46.08;101000.78;4149788;28;20452;-48
2023/07/21 08:20:40;;;;;;;;;;;;;;;21.67;46.18;101006.03;4149584;28;20304;-53
2023/07/21 08:22:41;;;;;;;;;;;;;;;21.69;46.19;101006.75;4149785;28;19921;-52
2023/07/21 08:24:43;;;;;;;;;;;;;;;21.70;45.92;101002.25;4148683;28;19922;-51
2023/07/21 08:26:44;;;;;;;;;;;;;;;21.67;46.25;101011.38;4149148;28;20445;-54
2023/07/21 08:28:46;;;;;;;;;;;;;;;21.66;46.08;101008.81;4149413;28;19952;-49
2023/07/21 08:30:48;;;;;;;;;;;;;;;21.64;46.41;101006.28;4149555;28;20009;-53
2023/07/21 08:33:00;;;;;;;;;;;;;;;21.67;46.37;100999.84;4149465;28;19925;-53
2023/07/21 08:35:02;;;;;;;;;;;;;;;21.69;46.07;100997.91;4148677;28;19936;-53
2023/07/21 08:37:04;;;;;;;;;;;;;;;21.70;46.12;101002.25;4149722;28;19960;-52
2023/07/21 08:39:05;;;;;;;;;;;;;;;21.73;46.17;100998.50;4149567;28;19948;-49
2023/07/21 08:41:08;;;;;;;;;;;;;;;21.74;46.21;101000.19;4147210;28;19933;-49
2023/07/21 08:43:10;;;;;;;;;;;;;;;21.73;46.14;101004.69;4133365;28;19922;-54
2023/07/21 08:45:14;;;;;;;;;;;;;;;21.74;46.17;101006.41;4132100;28;19921;-50
2023/07/21 08:47:16;;;;;;;;;;;;;;;21.76;46.46;101003.59;4133154;28;19955;-51
2023/07/21 08:49:18;;;;;;;;;;;;;;;21.77;46.42;101002.63;4133319;28;19960;-50
2023/07/21 08:51:19;;;;;;;;;;;;;;;21.76;46.19;101001.75;4132892;28;19933;-51
2023/07/21 08:53:24;;;;;;;;;;;;;;;21.78;46.51;101001.66;4133157;28;19957;-48
2023/07/21 08:55:26;;;;;;;;;;;;;;;21.77;46.27;101008.00;4131911;28;20008;-51
2023/07/21 08:57:28;;;;;;;;;;;;;;;21.78;45.95;101010.53;4132755;28;19925;-47
2023/07/21 08:59:29;;;;;;;;;;;;;;;21.79;46.28;101009.56;4132824;28;20004;-50
2023/07/21 09:01:31;;;;;;;;;;;;;;;21.81;46.12;101004.09;4132959;28;19925;-50
2023/07/21 09:03:32;;;;;;;;;;;;;;;21.81;46.06;101006.75;4148806;28;20353;-53
2023/07/21 09:05:34;;;;;;;;;;;;;;;21.82;46.06;101006.66;4147964;28;19929;-48
2023/07/21 09:07:38;;;;;;;;;;;;;;;21.83;45.95;101003.00;4131726;28;20061;-50
2023/07/21 09:09:48;;;;;;;;;;;;;;;21.83;45.84;101000.31;4148847;28;19928;-50
2023/07/21 09:11:58;;;;;;;;;;;;;;;21.83;45.59;100994.13;4148879;28;20063;-53
2023/07/21 09:13:59;;;;;;;;;;;;;;;21.81;45.93;100996.94;4148805;28;19944;-50
2023/07/21 09:16:05;;;;;;;;;;;;;;;21.82;45.88;100993.28;4148367;28;19921;-51
2023/07/21 09:18:06;;;;;;;;;;;;;;;21.82;45.75;101003.13;4148949;28;20332;-50
2023/07/21 09:20:11;;;;;;;;;;;;;;;21.84;45.55;101001.19;4148751;28;19925;-49
2023/07/21 09:22:13;;;;;;;;;;;;;;;21.83;45.93;101002.16;4131496;28;20024;-50
2023/07/21 09:24:14;;;;;;;;;;;;;;;21.85;45.54;101000.22;4147761;28;19921;-52
2023/07/21 09:26:22;;;;;;;;;;;;;;;21.84;45.52;100999.34;4148346;28;19921;-50
2023/07/21 09:28:41;;;;;;;;;;;;;;;21.86;45.48;101004.59;4148645;28;19929;-47
2023/07/21 09:30:51;;;;;;;;;;;;;;;21.86;45.15;101000.09;4148916;28;20312;-49
2023/07/21 09:32:54;;;;;;;;;;;;;;;21.87;45.06;101000.91;4148628;28;19922;-47
2023/07/21 09:35:02;;;;;;;;;;;;;;;21.90;45.24;101007.88;4147766;28;19971;-51
2023/07/21 09:37:05;;;;;;;;;;;;;;;21.88;44.75;101001.78;4148757;28;20387;-48
2023/07/21 09:39:13;;;;;;;;;;;;;;;21.88;44.74;101005.31;4147322;28;19960;-51
2023/07/21 09:41:15;;;;;;;;;;;;;;;21.90;44.65;101006.06;4145497;28;19944;-51
2023/07/21 09:43:18;;;;;;;;;;;;;;;21.90;44.92;101000.69;4132399;28;19922;-52
2023/07/21 09:45:20;;;;;;;;;;;;;;;21.88;44.68;101007.97;4131001;28;19933;-48
2023/07/21 09:47:22;;;;;;;;;;;;;;;21.91;44.82;100993.50;4132440;28;19932;-52
2023/07/21 09:49:23;;;;;;;;;;;;;;;21.91;44.71;101005.09;4132281;28;19929;-50
2023/07/21 09:51:28;;;;;;;;;;;;;;;21.92;44.68;100998.75;4132140;28;19940;-53
2023/07/21 09:53:32;;;;;;;;;;;;;;;21.83;44.37;100994.13;4131837;28;19928;-49
2023/07/21 09:55:38;;;;;;;;;;;;;;;21.94;44.44;101001.31;4131183;28;20329;-50
2023/07/21 09:57:41;;;;;;;;;;;;;;;21.93;44.22;101007.63;4132062;28;19925;-50
2023/07/21 09:59:45;;;;;;;;;;;;;;;21.94;44.45;101007.50;4132078;28;20374;-54
2023/07/21 10:01:48;;;;;;;;;;;;;;;21.97;44.55;101004.59;4133469;28;19972;-53
2023/07/21 10:03:52;;;;;;;;;;;;;;;21.98;44.31;101014.34;4148342;28;19953;-46
2023/07/21 10:05:54;;;;;;;;;;;;;;;21.99;43.97;101010.69;4141451;28;19921;-54
2023/07/21 10:07:56;;;;;;;;;;;;;;;22.02;44.10;101005.06;4131868;28;19922;-52
2023/07/21 10:09:58;;;;;;;;;;;;;;;22.03;43.90;101005.94;4131757;28;19968;-50
2023/07/21 10:12:26;;;;;;;;;;;;;;;22.02;43.75;101014.94;4131784;28;19972;-50
2023/07/21 10:14:31;;;;;;;;;;;;;;;22.00;43.34;101007.00;4127546;28;19922;-52
2023/07/21 10:16:33;;;;;;;;;;;;;;;21.97;43.38;101017.97;4131989;28;19980;-52
2023/07/21 10:18:35;;;;;;;;;;;;;;;21.99;43.56;101016.03;4131793;28;19929;-50
2023/07/21 10:20:42;;;;;;;;;;;;;;;22.01;43.52;101013.22;4131782;28;19929;-50
2023/07/21 10:22:54;;;;;;;;;;;;;;;22.00;43.30;101007.00;4131907;28;19922;-53
2023/07/21 10:24:55;;;;;;;;;;;;;;;22.01;43.32;101014.06;4130763;28;19921;-53
2023/07/21 10:27:00;;;;;;;;;;;;;;;22.06;43.05;101012.88;4131517;28;19922;-52
2023/07/21 10:29:15;;;;;;;;;;;;;;;22.09;43.57;101009.94;4131668;28;20270;-52
2023/07/21 10:31:26;;;;;;;;;;;;;;;22.11;43.16;101006.16;4131599;28;19929;-51